createdAt,value
2018-12-26T00:00:51.414Z,10.50
2018-12-26T00:03:19.777Z,9.17
2018-12-26T00:05:48.205Z,9.60
2018-12-26T00:08:16.591Z,10.17
2018-12-26T00:10:44.968Z,10.97
2018-12-26T00:13:13.325Z,10.30
2018-12-26T00:15:41.684Z,12.00
2018-12-26T00:18:10.050Z,10.70
2018-12-26T00:20:38.413Z,11.43
2018-12-26T00:23:06.784Z,11.90
2018-12-26T00:25:35.162Z,11.97
2018-12-26T00:28:03.535Z,12.03
2018-12-26T00:30:31.918Z,12.50
2018-12-26T00:33:00.280Z,14.00
2018-12-26T00:35:28.650Z,12.18
2018-12-26T00:37:57.028Z,13.60
2018-12-26T00:40:25.395Z,13.27
2018-12-26T00:42:53.772Z,13.70
2018-12-26T00:45:22.152Z,16.30
2018-12-26T00:47:50.524Z,15.30
2018-12-26T00:50:18.901Z,14.10
2018-12-26T00:52:47.262Z,15.77
2018-12-26T00:55:15.621Z,14.93
2018-12-26T00:57:44.001Z,13.75
2018-12-26T01:00:12.362Z,15.03
2018-12-26T01:02:40.738Z,14.13
2018-12-26T01:05:09.103Z,16.53
2018-12-26T01:07:37.498Z,17.23
2018-12-26T01:10:39.574Z,15.17
2018-12-26T01:13:07.929Z,14.80
2018-12-26T01:15:36.313Z,13.97
2018-12-26T01:18:04.689Z,15.50
2018-12-26T01:20:33.046Z,14.90
2018-12-26T01:23:01.414Z,16.93
2018-12-26T01:25:29.780Z,14.83
2018-12-26T01:27:58.151Z,16.93
2018-12-26T01:30:26.542Z,15.00
2018-12-26T01:32:54.899Z,15.53
2018-12-26T01:35:23.267Z,16.53
2018-12-26T01:37:51.635Z,16.60
2018-12-26T01:40:19.998Z,15.60
2018-12-26T01:42:48.357Z,16.53
2018-12-26T01:45:16.746Z,16.27
2018-12-26T01:47:45.114Z,16.70
2018-12-26T01:50:13.466Z,16.10
2018-12-26T01:52:41.824Z,17.47
2018-12-26T01:55:10.232Z,17.55
2018-12-26T01:57:38.597Z,16.27
2018-12-26T02:00:40.969Z,19.63
2018-12-26T02:03:09.352Z,20.02
2018-12-26T02:05:37.717Z,22.33
2018-12-26T02:08:06.090Z,19.00
2018-12-26T02:10:34.451Z,20.73
2018-12-26T02:13:02.816Z,19.52
2018-12-26T02:15:31.264Z,18.70
2018-12-26T02:17:59.645Z,21.50
2018-12-26T02:20:28.010Z,19.90
2018-12-26T02:22:56.368Z,19.80
2018-12-26T02:25:24.722Z,20.40
2018-12-26T02:27:53.093Z,18.25
2018-12-26T02:30:21.460Z,18.43
2018-12-26T02:32:49.839Z,19.77
2018-12-26T02:35:18.207Z,19.32
2018-12-26T02:37:46.576Z,17.63
2018-12-26T02:40:14.942Z,21.77
2018-12-26T02:42:43.314Z,19.43
2018-12-26T02:45:11.702Z,18.80
2018-12-26T02:47:40.062Z,21.13
2018-12-26T02:50:48.458Z,18.37
2018-12-26T02:53:16.817Z,20.57
2018-12-26T02:55:45.186Z,20.60
2018-12-26T02:58:13.544Z,20.72
2018-12-26T03:00:41.923Z,24.23
2018-12-26T03:03:10.293Z,20.47
2018-12-26T03:05:38.664Z,22.53
2018-12-26T03:08:07.048Z,22.27
2018-12-26T03:10:35.419Z,24.67
2018-12-26T03:13:03.776Z,22.77
2018-12-26T03:15:32.148Z,20.93
2018-12-26T03:18:00.503Z,20.37
2018-12-26T03:20:28.881Z,22.53
2018-12-26T03:22:57.339Z,20.03
2018-12-26T03:25:25.724Z,21.13
2018-12-26T03:27:54.093Z,24.02
2018-12-26T03:30:22.469Z,22.05
2018-12-26T03:32:50.837Z,21.83
2018-12-26T03:35:19.211Z,20.75
2018-12-26T03:37:47.586Z,19.70
2018-12-26T03:40:15.945Z,21.18
2018-12-26T03:43:24.406Z,22.02
2018-12-26T03:45:52.723Z,19.80
2018-12-26T03:49:01.125Z,19.93
2018-12-26T03:51:29.485Z,18.67
2018-12-26T03:53:57.923Z,20.53
2018-12-26T03:56:26.291Z,19.17
2018-12-26T03:58:54.655Z,20.43
2018-12-26T04:01:23.019Z,20.25
2018-12-26T04:03:51.385Z,20.80
2018-12-26T04:06:19.755Z,18.67
2018-12-26T04:08:48.135Z,18.90
2018-12-26T04:11:16.489Z,18.53
2018-12-26T04:13:44.861Z,21.45
2018-12-26T04:16:13.225Z,19.77
2018-12-26T04:18:41.668Z,19.37
2018-12-26T04:21:10.194Z,19.33
2018-12-26T04:23:38.516Z,20.93
2018-12-26T04:26:06.901Z,20.00
2018-12-26T04:28:35.268Z,18.07
2018-12-26T04:31:03.639Z,18.62
2018-12-26T04:33:32.002Z,19.77
2018-12-26T04:36:00.368Z,20.65
2018-12-26T04:38:28.742Z,19.27
2018-12-26T04:40:57.142Z,24.15
2018-12-26T04:43:25.508Z,20.20
2018-12-26T04:45:53.882Z,19.17
2018-12-26T04:48:22.263Z,20.23
2018-12-26T04:50:50.623Z,18.75
2018-12-26T04:53:19.066Z,18.50
2018-12-26T04:55:47.443Z,17.23
2018-12-26T04:58:15.824Z,19.20
2018-12-26T05:00:44.213Z,21.05
2018-12-26T05:03:12.596Z,19.40
2018-12-26T05:05:40.943Z,20.00
2018-12-26T05:08:09.357Z,19.30
2018-12-26T05:10:37.718Z,19.60
2018-12-26T05:13:06.077Z,18.90
2018-12-26T05:15:34.453Z,19.17
2018-12-26T05:18:02.815Z,20.30
2018-12-26T05:20:31.192Z,21.33
2018-12-26T05:22:59.559Z,21.27
2018-12-26T05:25:27.935Z,20.87
2018-12-26T05:27:56.311Z,21.90
2018-12-26T05:30:24.659Z,19.07
2018-12-26T05:32:53.053Z,21.23
2018-12-26T05:35:21.494Z,23.17
2018-12-26T05:37:49.875Z,20.90
2018-12-26T05:40:18.272Z,20.93
2018-12-26T05:42:46.653Z,19.20
2018-12-26T05:45:34.365Z,21.90
2018-12-26T05:48:02.761Z,22.50
2018-12-26T05:50:31.131Z,22.07
2018-12-26T05:52:59.502Z,24.33
2018-12-26T05:55:27.871Z,22.70
2018-12-26T05:57:56.235Z,23.10
2018-12-26T06:00:24.613Z,23.43
2018-12-26T06:02:53.818Z,23.90
2018-12-26T06:05:22.182Z,27.17
2018-12-26T06:07:50.546Z,25.40
2018-12-26T06:10:18.925Z,27.98
2018-12-26T06:12:47.281Z,26.20
2018-12-26T06:15:15.652Z,29.37
2018-12-26T06:17:44.004Z,27.43
2018-12-26T06:20:12.474Z,30.10
2018-12-26T06:22:40.823Z,29.37
2018-12-26T06:25:09.231Z,30.80
2018-12-26T06:27:37.570Z,31.33
2018-12-26T06:30:45.976Z,29.67
2018-12-26T06:33:14.338Z,34.63
2018-12-26T06:35:42.702Z,33.60
2018-12-26T06:38:11.080Z,35.70
2018-12-26T06:40:39.466Z,38.00
2018-12-26T06:43:07.826Z,31.70
2018-12-26T06:45:36.209Z,34.60
2018-12-26T06:48:04.602Z,32.03
2018-12-26T06:50:32.968Z,34.47
2018-12-26T06:53:01.355Z,32.80
2018-12-26T06:55:29.735Z,33.37
2018-12-26T06:58:00.176Z,36.53
2018-12-26T07:00:28.201Z,36.80
2018-12-26T07:02:56.570Z,35.80
2018-12-26T07:05:24.937Z,35.80
2018-12-26T07:07:53.323Z,39.80
2018-12-26T07:10:21.704Z,34.80
2018-12-26T07:12:50.083Z,33.90
2018-12-26T07:15:18.441Z,34.20
2018-12-26T07:17:46.831Z,36.93
2018-12-26T07:20:15.213Z,36.93
2018-12-26T07:22:43.589Z,35.20
2018-12-26T07:25:11.978Z,34.17
2018-12-26T07:27:40.339Z,38.40
2018-12-26T07:30:08.707Z,35.38
2018-12-26T07:32:37.084Z,35.83
2018-12-26T07:35:05.470Z,33.05
2018-12-26T07:37:33.846Z,33.30
2018-12-26T07:40:02.219Z,38.07
2018-12-26T07:42:30.614Z,38.80
2018-12-26T07:44:59.065Z,36.30
2018-12-26T07:47:27.458Z,37.28
2018-12-26T07:49:55.829Z,38.00
2018-12-26T07:52:24.514Z,39.40
2018-12-26T07:54:52.895Z,36.08
2018-12-26T07:57:21.294Z,35.50
2018-12-26T07:59:49.675Z,37.27
2018-12-26T08:02:18.044Z,38.33
2018-12-26T08:04:46.440Z,33.97
2018-12-26T08:07:14.845Z,33.03
2018-12-26T08:09:43.238Z,38.93
2018-12-26T08:12:11.615Z,34.55
2018-12-26T08:14:40.004Z,38.90
2018-12-26T08:17:08.363Z,36.67
2018-12-26T08:19:36.755Z,33.23
2018-12-26T08:22:05.123Z,36.70
2018-12-26T08:24:33.501Z,32.67
2018-12-26T08:27:01.894Z,32.23
2018-12-26T08:29:30.299Z,35.43
2018-12-26T08:31:58.678Z,32.50
2018-12-26T08:34:27.038Z,32.78
2018-12-26T08:36:55.429Z,30.03
2018-12-26T08:39:23.811Z,31.43
2018-12-26T08:41:52.230Z,31.13
2018-12-26T08:44:20.637Z,32.60
2018-12-26T08:46:49.027Z,30.47
2018-12-26T08:49:17.418Z,29.73
2018-12-26T08:51:45.791Z,31.68
2018-12-26T08:54:14.159Z,31.37
2018-12-26T08:56:42.531Z,34.53
2018-12-26T08:59:10.890Z,32.30
2018-12-26T09:01:39.309Z,30.33
2018-12-26T09:04:07.670Z,30.33
2018-12-26T09:06:36.090Z,32.20
2018-12-26T09:09:23.803Z,28.87
2018-12-26T09:11:52.169Z,29.42
2018-12-26T09:14:20.548Z,31.87
2018-12-26T09:16:48.922Z,26.97
2018-12-26T09:19:17.301Z,29.70
2018-12-26T09:21:45.677Z,29.07
2018-12-26T09:24:14.095Z,27.27
2018-12-26T09:26:42.456Z,30.15
2018-12-26T09:29:10.844Z,30.60
2018-12-26T09:31:39.217Z,27.77
2018-12-26T09:34:07.610Z,27.43
2018-12-26T09:36:35.963Z,28.07
2018-12-26T09:39:44.390Z,27.30
2018-12-26T09:42:12.771Z,24.77
2018-12-26T09:44:41.148Z,31.03
2018-12-26T09:47:09.524Z,28.42
2018-12-26T09:49:37.934Z,26.93
2018-12-26T09:52:06.321Z,29.30
2018-12-26T09:54:34.687Z,27.50
2018-12-26T09:57:03.076Z,29.40
2018-12-26T09:59:31.449Z,27.77
2018-12-26T10:01:59.837Z,27.57
2018-12-26T10:04:28.236Z,30.65
2018-12-26T10:06:56.628Z,27.93
2018-12-26T10:09:25.020Z,29.98
2018-12-26T10:11:53.391Z,28.30
2018-12-26T10:14:21.774Z,27.40
2018-12-26T10:16:50.179Z,29.13
2018-12-26T10:19:18.574Z,28.40
2018-12-26T10:21:46.961Z,27.50
2018-12-26T10:24:15.351Z,27.80
2018-12-26T10:26:43.753Z,28.60
2018-12-26T10:29:12.160Z,27.13
2018-12-26T10:31:40.589Z,23.87
2018-12-26T10:34:28.319Z,28.13
2018-12-26T10:36:56.680Z,25.87
2018-12-26T10:39:25.048Z,26.17
2018-12-26T10:41:53.437Z,26.40
2018-12-26T10:44:21.804Z,24.33
2018-12-26T10:46:50.200Z,25.87
2018-12-26T10:49:18.577Z,25.50
2018-12-26T10:51:46.951Z,25.90
2018-12-26T10:54:15.360Z,24.87
2018-12-26T10:56:43.747Z,25.70
2018-12-26T10:59:12.094Z,25.03
2018-12-26T11:01:40.461Z,22.37
2018-12-26T11:04:08.837Z,21.10
2018-12-26T11:06:37.210Z,23.17
2018-12-26T11:09:45.672Z,23.33
2018-12-26T11:12:14.046Z,19.53
2018-12-26T11:14:42.421Z,17.82
2018-12-26T11:17:10.796Z,18.37
2018-12-26T11:19:39.176Z,16.60
2018-12-26T11:22:07.537Z,16.13
2018-12-26T11:24:36.032Z,13.47
2018-12-26T11:27:04.404Z,12.68
2018-12-26T11:29:32.785Z,12.05
2018-12-26T11:32:01.160Z,13.13
2018-12-26T11:34:29.540Z,12.10
2018-12-26T11:36:57.905Z,12.85
2018-12-26T11:39:26.291Z,12.80
2018-12-26T11:41:54.691Z,12.20
2018-12-26T11:44:23.072Z,11.03
2018-12-26T11:46:51.453Z,12.40
2018-12-26T11:49:19.815Z,13.17
2018-12-26T11:51:48.230Z,10.77
2018-12-26T11:54:16.585Z,11.90
2018-12-26T11:56:45.067Z,13.20
2018-12-26T11:59:13.435Z,12.07
2018-12-26T12:01:41.824Z,11.70
2018-12-26T12:04:10.197Z,12.83
2018-12-26T12:06:38.559Z,12.15
2018-12-26T12:09:07.118Z,13.63
2018-12-26T12:11:35.567Z,12.93
2018-12-26T12:14:03.971Z,13.13
2018-12-26T12:16:32.356Z,13.57
2018-12-26T12:19:00.747Z,12.83
2018-12-26T12:21:29.155Z,14.47
2018-12-26T12:23:57.520Z,13.77
2018-12-26T12:26:25.906Z,13.70
2018-12-26T12:28:54.267Z,13.37
2018-12-26T12:31:22.678Z,14.17
2018-12-26T12:33:51.067Z,15.18
2018-12-26T12:36:19.487Z,15.50
2018-12-26T12:38:47.807Z,14.70
2018-12-26T12:41:16.207Z,15.10
2018-12-26T12:43:44.571Z,15.95
2018-12-26T12:46:12.953Z,15.50
2018-12-26T12:48:41.339Z,14.20
2018-12-26T12:51:09.698Z,16.50
2018-12-26T12:53:39.083Z,14.86
2018-12-26T12:56:26.822Z,14.97
2018-12-26T12:58:55.418Z,17.87
2018-12-26T13:01:23.789Z,15.45
2018-12-26T13:03:52.156Z,16.85
2018-12-26T13:06:20.523Z,18.07
2018-12-26T13:08:48.886Z,16.23
2018-12-26T13:11:17.260Z,17.25
2018-12-26T13:13:45.623Z,18.80
2018-12-26T13:16:13.990Z,16.80
2018-12-26T13:18:42.340Z,18.27
2018-12-26T13:21:10.721Z,19.30
2018-12-26T13:23:39.096Z,20.90
2018-12-26T13:26:07.477Z,20.10
2018-12-26T13:28:35.847Z,19.20
2018-12-26T13:31:05.119Z,20.10
2018-12-26T13:33:34.356Z,19.77
2018-12-26T13:36:02.733Z,19.10
2018-12-26T13:38:31.102Z,17.33
2018-12-26T13:40:59.473Z,18.57
2018-12-26T13:43:27.845Z,18.83
2018-12-26T13:45:56.200Z,19.93
2018-12-26T13:48:24.572Z,18.03
2018-12-26T13:50:52.959Z,21.93
2018-12-26T13:53:21.354Z,19.37
2018-12-26T13:55:49.739Z,18.70
2018-12-26T13:58:18.194Z,19.63
2018-12-26T14:00:46.490Z,19.00
2018-12-26T14:03:40.177Z,18.73
2018-12-26T14:06:27.887Z,19.90
2018-12-26T14:08:56.280Z,16.37
2018-12-26T14:11:24.652Z,18.70
2018-12-26T14:13:53.030Z,20.47
2018-12-26T14:16:21.408Z,20.60
2018-12-26T14:18:49.769Z,19.10
2018-12-26T14:21:18.213Z,22.25
2018-12-26T14:23:46.571Z,22.45
2018-12-26T14:26:14.940Z,21.23
2018-12-26T14:28:43.327Z,22.37
2018-12-26T14:31:11.702Z,21.77
2018-12-26T14:33:40.455Z,21.73
2018-12-26T14:36:08.821Z,24.33
2018-12-26T14:38:37.191Z,27.33
2018-12-26T14:41:05.557Z,23.55
2018-12-26T14:43:33.920Z,24.83
2018-12-26T14:46:02.292Z,25.73
2018-12-26T14:48:30.663Z,27.48
2018-12-26T14:50:59.034Z,27.00
2018-12-26T14:53:27.403Z,25.97
2018-12-26T14:55:55.780Z,29.17
2018-12-26T14:58:24.180Z,32.03
2018-12-26T15:01:11.908Z,33.10
2018-12-26T15:03:40.511Z,32.63
2018-12-26T15:06:08.876Z,33.73
2018-12-26T15:08:37.297Z,30.73
2018-12-26T15:11:05.672Z,32.80
2018-12-26T15:13:34.043Z,34.60
2018-12-26T15:16:02.419Z,33.80
2018-12-26T15:18:30.808Z,34.60
2018-12-26T15:20:59.237Z,33.80
2018-12-26T15:23:27.612Z,36.42
2018-12-26T15:25:56.073Z,35.57
2018-12-26T15:28:24.461Z,36.10
2018-12-26T15:30:52.829Z,32.13
2018-12-26T15:33:21.205Z,36.10
2018-12-26T15:35:49.582Z,34.93
2018-12-26T15:38:17.975Z,36.77
2018-12-26T15:40:46.363Z,35.48
2018-12-26T15:43:14.726Z,41.67
2018-12-26T15:45:43.092Z,34.07
2018-12-26T15:48:11.465Z,34.73
2018-12-26T15:50:39.862Z,36.23
2018-12-26T15:53:08.235Z,37.60
2018-12-26T15:55:36.609Z,33.92
2018-12-26T15:58:04.989Z,29.70
2018-12-26T16:00:37.557Z,33.33
2018-12-26T16:03:03.481Z,32.40
2018-12-26T16:05:31.858Z,30.97
2018-12-26T16:08:00.256Z,30.20
2018-12-26T16:10:28.647Z,30.90
2018-12-26T16:12:57.019Z,33.57
2018-12-26T16:15:25.400Z,31.50
2018-12-26T16:17:53.796Z,30.10
2018-12-26T16:20:22.176Z,28.10
2018-12-26T16:22:50.553Z,30.97
2018-12-26T16:25:18.929Z,32.70
2018-12-26T16:27:47.295Z,33.53
2018-12-26T16:30:15.671Z,32.05
2018-12-26T16:32:44.049Z,33.60
2018-12-26T16:35:12.480Z,29.33
2018-12-26T16:37:40.844Z,31.13
2018-12-26T16:40:09.244Z,31.30
2018-12-26T16:42:37.612Z,32.70
2018-12-26T16:45:46.023Z,33.40
2018-12-26T16:48:14.389Z,33.47
2018-12-26T16:50:42.789Z,30.50
2018-12-26T16:53:11.242Z,31.83
2018-12-26T16:55:39.614Z,30.87
2018-12-26T16:58:07.994Z,29.00
2018-12-26T17:00:36.384Z,31.25
2018-12-26T17:03:04.764Z,30.93
2018-12-26T17:05:33.149Z,31.50
2018-12-26T17:08:01.550Z,30.33
2018-12-26T17:10:29.920Z,30.85
2018-12-26T17:12:58.278Z,34.53
2018-12-26T17:15:26.665Z,31.05
2018-12-26T17:17:55.049Z,33.28
2018-12-26T17:20:23.416Z,32.73
2018-12-26T17:22:51.825Z,32.90
2018-12-26T17:25:39.535Z,31.73
2018-12-26T17:28:07.918Z,29.15
2018-12-26T17:30:36.287Z,33.30
2018-12-26T17:33:04.666Z,32.80
2018-12-26T17:35:33.032Z,33.60
2018-12-26T17:38:01.406Z,34.67
2018-12-26T17:40:29.779Z,30.97
2018-12-26T17:42:58.184Z,32.97
2018-12-26T17:45:26.522Z,31.10
2018-12-26T17:47:56.000Z,32.50
2018-12-26T17:50:45.628Z,32.10
2018-12-26T17:53:48.201Z,31.03
2018-12-26T17:56:50.283Z,26.83
2018-12-26T17:59:52.501Z,28.37
2018-12-26T18:02:54.205Z,27.60
2018-12-26T18:05:22.584Z,23.77
2018-12-26T18:07:50.963Z,22.13
2018-12-26T18:10:19.378Z,21.67
2018-12-26T18:12:47.763Z,24.93
2018-12-26T18:15:16.131Z,24.73
2018-12-26T18:17:44.518Z,24.43
2018-12-26T18:20:12.914Z,23.70
2018-12-26T18:22:41.287Z,25.53
2018-12-26T18:25:09.672Z,24.67
2018-12-26T18:27:38.035Z,25.30
2018-12-26T18:30:46.440Z,22.90
2018-12-26T18:33:14.803Z,25.20
2018-12-26T18:35:43.167Z,21.60
2018-12-26T18:38:11.525Z,24.52
2018-12-26T18:40:39.894Z,22.17
2018-12-26T18:43:08.268Z,24.17
2018-12-26T18:45:36.670Z,20.90
2018-12-26T18:48:05.161Z,20.45
2018-12-26T18:50:33.531Z,19.03
2018-12-26T18:53:01.912Z,17.03
2018-12-26T18:55:30.270Z,13.73
2018-12-26T18:57:58.644Z,12.40
2018-12-26T19:00:27.008Z,12.07
2018-12-26T19:02:55.453Z,12.60
2018-12-26T19:05:23.840Z,11.50
2018-12-26T19:07:52.199Z,11.13
2018-12-26T19:10:20.563Z,11.30
2018-12-26T19:12:48.924Z,11.57
2018-12-26T19:15:17.282Z,11.80
2018-12-26T19:17:45.726Z,12.10
2018-12-26T19:20:14.049Z,10.97
2018-12-26T19:22:42.415Z,13.07
2018-12-26T19:25:10.771Z,15.20
2018-12-26T19:27:39.146Z,16.02
2018-12-26T19:30:40.837Z,15.90
2018-12-26T19:33:09.204Z,15.40
2018-12-26T19:35:37.567Z,16.10
2018-12-26T19:38:05.945Z,16.82
2018-12-26T19:40:34.323Z,17.75
2018-12-26T19:43:02.720Z,18.07
2018-12-26T19:45:31.088Z,16.73
2018-12-26T19:47:59.463Z,16.40
2018-12-26T19:50:27.851Z,16.47
2018-12-26T19:52:56.213Z,16.70
2018-12-26T19:55:24.595Z,16.60
2018-12-26T19:57:52.957Z,17.07
2018-12-26T20:00:21.336Z,17.77
2018-12-26T20:02:49.704Z,16.87
2018-12-26T20:05:18.070Z,17.27
2018-12-26T20:07:46.477Z,16.33
2018-12-26T20:10:14.889Z,16.97
2018-12-26T20:12:43.296Z,17.97
2018-12-26T20:15:11.644Z,16.82
2018-12-26T20:17:40.003Z,15.90
2018-12-26T20:20:48.414Z,16.80
2018-12-26T20:23:16.853Z,17.23
2018-12-26T20:25:45.225Z,20.70
2018-12-26T20:28:13.598Z,18.90
2018-12-26T20:30:41.966Z,19.20
2018-12-26T20:33:10.347Z,18.67
2018-12-26T20:35:38.719Z,19.80
2018-12-26T20:38:07.192Z,19.50
2018-12-26T20:40:35.490Z,19.47
2018-12-26T20:43:03.863Z,18.87
2018-12-26T20:45:32.295Z,20.27
2018-12-26T20:48:00.687Z,20.43
2018-12-26T20:50:29.097Z,22.60
2018-12-26T20:52:57.456Z,19.97
2018-12-26T20:55:25.817Z,21.20
2018-12-26T20:57:54.174Z,19.02
2018-12-26T21:00:22.554Z,18.00
2018-12-26T21:02:50.938Z,19.92
2018-12-26T21:05:19.302Z,19.67
2018-12-26T21:07:47.678Z,20.05
2018-12-26T21:10:16.044Z,20.87
2018-12-26T21:12:44.417Z,20.73
2018-12-26T21:15:12.863Z,18.53
2018-12-26T21:17:41.246Z,19.63
2018-12-26T21:20:09.609Z,20.40
2018-12-26T21:22:37.999Z,19.53
2018-12-26T21:25:40.514Z,19.90
2018-12-26T21:28:08.885Z,22.17
2018-12-26T21:30:37.247Z,21.87
2018-12-26T21:33:05.698Z,23.30
2018-12-26T21:35:46.626Z,21.93
2018-12-26T21:38:15.009Z,21.80
2018-12-26T21:40:43.379Z,20.30
2018-12-26T21:43:11.746Z,22.27
2018-12-26T21:45:40.122Z,22.47
2018-12-26T21:48:08.487Z,23.52
2018-12-26T21:50:36.854Z,25.37
2018-12-26T21:53:05.215Z,22.43
2018-12-26T21:55:33.606Z,28.20
2018-12-26T21:58:01.984Z,25.25
2018-12-26T22:00:30.359Z,26.43
2018-12-26T22:02:58.756Z,25.80
2018-12-26T22:05:27.141Z,24.70
2018-12-26T22:07:55.534Z,24.85
2018-12-26T22:10:23.900Z,26.05
2018-12-26T22:12:52.281Z,25.35
2018-12-26T22:15:20.684Z,26.40
2018-12-26T22:17:49.072Z,26.45
2018-12-26T22:20:17.436Z,26.05
2018-12-26T22:22:45.818Z,23.45
2018-12-26T22:25:14.178Z,23.70
2018-12-26T22:27:42.545Z,26.00
2018-12-26T22:30:44.781Z,23.90
2018-12-26T22:33:13.163Z,22.40
2018-12-26T22:35:41.539Z,20.67
2018-12-26T22:38:09.911Z,21.27
2018-12-26T22:40:38.268Z,20.88
2018-12-26T22:43:06.674Z,19.20
2018-12-26T22:45:35.059Z,20.80
2018-12-26T22:48:03.481Z,16.47
2018-12-26T22:53:10.818Z,19.30
2018-12-26T22:55:39.259Z,22.20
2018-12-26T22:58:07.595Z,22.53
2018-12-26T23:03:14.928Z,23.37
2018-12-26T23:05:43.325Z,23.07
2018-12-26T23:08:11.692Z,23.83
2018-12-26T23:10:40.070Z,23.80
2018-12-26T23:13:08.437Z,22.20
2018-12-26T23:15:36.810Z,20.13
2018-12-26T23:18:05.220Z,21.87
2018-12-26T23:20:33.582Z,22.17
2018-12-26T23:23:01.959Z,21.20
2018-12-26T23:25:30.344Z,23.05
2018-12-26T23:27:58.807Z,20.80
2018-12-26T23:30:27.183Z,23.30
2018-12-26T23:32:55.558Z,24.98
2018-12-26T23:35:23.962Z,26.05
2018-12-26T23:37:52.339Z,24.90
2018-12-26T23:40:20.699Z,27.57
2018-12-26T23:42:49.068Z,25.80
2018-12-26T23:45:17.440Z,27.07
2018-12-26T23:47:45.834Z,27.70
2018-12-26T23:50:14.196Z,29.17
2018-12-26T23:52:42.609Z,26.80
2018-12-26T23:55:11.000Z,25.72
2018-12-26T23:57:39.371Z,27.10
